createdAt,value
2022-12-11T00:01:58.279Z,84.59
2022-12-11T00:06:08.106Z,84.59
2022-12-11T00:10:10.936Z,84.73
2022-12-11T00:14:14.318Z,84.09
2022-12-11T00:18:17.008Z,84.42
2022-12-11T00:22:21.039Z,84.50
2022-12-11T00:26:24.161Z,84.91
2022-12-11T00:30:26.809Z,84.64
2022-12-11T00:34:29.414Z,84.76
2022-12-11T00:38:34.242Z,84.73
2022-12-11T00:42:36.905Z,84.55
2022-12-11T00:46:40.080Z,84.74
2022-12-11T00:50:42.949Z,84.64
2022-12-11T00:54:47.548Z,84.67
2022-12-11T00:58:50.747Z,84.21
2022-12-11T01:02:53.475Z,84.52
2022-12-11T01:06:56.283Z,84.44
2022-12-11T01:11:05.549Z,85.14
2022-12-11T01:15:09.561Z,85.26
2022-12-11T01:19:13.021Z,85.06
2022-12-11T01:23:16.052Z,85.09
2022-12-11T01:27:20.548Z,84.60
2022-12-11T01:31:23.197Z,85.21
2022-12-11T01:35:26.121Z,84.85
2022-12-11T01:39:29.345Z,84.82
2022-12-11T01:43:33.518Z,84.72
2022-12-11T01:47:36.320Z,84.74
2022-12-11T01:51:42.774Z,85.02
2022-12-11T01:55:47.184Z,84.85
2022-12-11T01:59:51.219Z,84.58
2022-12-11T02:03:56.736Z,84.45
2022-12-11T02:08:03.017Z,84.37
2022-12-11T02:12:16.452Z,84.28
2022-12-11T02:16:30.049Z,84.34
2022-12-11T02:20:38.324Z,83.77
2022-12-11T02:24:54.242Z,83.11
2022-12-11T02:29:00.723Z,83.01
2022-12-11T02:33:03.611Z,83.54
2022-12-11T02:37:10.577Z,82.68
2022-12-11T02:41:13.627Z,82.92
2022-12-11T02:45:20.296Z,82.87
2022-12-11T02:49:25.455Z,82.72
2022-12-11T02:53:33.733Z,83.25
2022-12-11T02:57:43.196Z,82.83
2022-12-11T03:01:47.676Z,82.87
2022-12-11T03:05:50.567Z,83.56
2022-12-11T03:09:53.316Z,83.38
2022-12-11T03:13:56.318Z,83.73
2022-12-11T03:18:04.909Z,83.65
2022-12-11T03:22:11.724Z,83.28
2022-12-11T03:26:17.638Z,84.03
2022-12-11T03:30:23.354Z,84.02
2022-12-11T03:34:32.461Z,84.26
2022-12-11T03:38:41.088Z,84.48
2022-12-11T03:42:46.181Z,84.47
2022-12-11T03:46:51.526Z,84.92
2022-12-11T03:50:56.272Z,85.26
2022-12-11T03:55:02.139Z,85.41
2022-12-11T03:59:04.804Z,85.56
2022-12-11T04:03:17.847Z,85.63
2022-12-11T04:07:21.993Z,85.48
2022-12-11T04:11:38.531Z,85.39
2022-12-11T04:15:41.714Z,84.87
2022-12-11T04:20:02.064Z,85.27
2022-12-11T04:24:18.690Z,85.32
2022-12-11T04:28:21.370Z,85.60
2022-12-11T04:32:24.021Z,86.21
2022-12-11T04:36:26.750Z,85.71
2022-12-11T04:40:31.062Z,86.32
2022-12-11T04:44:34.908Z,86.75
2022-12-11T04:48:38.275Z,86.62
2022-12-11T04:52:41.001Z,86.85
2022-12-11T04:56:44.999Z,86.23
2022-12-11T05:00:48.031Z,86.85
2022-12-11T05:04:50.727Z,86.83
2022-12-11T05:08:53.486Z,86.57
2022-12-11T05:12:57.557Z,87.02
2022-12-11T05:17:00.706Z,86.54
2022-12-11T05:21:06.190Z,86.54
2022-12-11T05:25:09.626Z,86.18
2022-12-11T05:29:13.901Z,86.52
2022-12-11T05:33:16.556Z,86.20
2022-12-11T05:37:19.937Z,85.84
2022-12-11T05:41:24.345Z,86.07
2022-12-11T05:45:28.369Z,86.29
2022-12-11T05:49:31.337Z,85.88
2022-12-11T05:53:34.409Z,86.09
2022-12-11T05:57:37.035Z,86.09
2022-12-11T06:01:43.105Z,86.01
2022-12-11T06:05:45.860Z,86.06
2022-12-11T06:09:48.495Z,85.67
2022-12-11T06:13:51.464Z,86.39
2022-12-11T06:17:57.951Z,86.34
2022-12-11T06:22:01.142Z,87.12
2022-12-11T06:26:04.777Z,87.57
2022-12-11T06:30:08.949Z,87.43
2022-12-11T06:34:14.225Z,87.75
2022-12-11T06:38:17.391Z,87.07
2022-12-11T06:42:20.116Z,87.49
2022-12-11T06:46:22.879Z,87.01
2022-12-11T06:50:27.151Z,86.94
2022-12-11T06:54:29.828Z,86.59
2022-12-11T06:58:32.714Z,86.05
2022-12-11T07:02:35.562Z,85.71
2022-12-11T07:06:39.662Z,86.22
2022-12-11T07:10:42.412Z,85.12
2022-12-11T07:14:45.568Z,85.78
2022-12-11T07:18:51.399Z,85.21
2022-12-11T07:22:56.031Z,85.42
2022-12-11T07:26:58.704Z,85.45
2022-12-11T07:31:01.427Z,85.67
2022-12-11T07:35:04.291Z,85.79
2022-12-11T07:39:09.081Z,85.02
2022-12-11T07:43:11.765Z,84.82
2022-12-11T07:47:14.446Z,84.89
2022-12-11T07:51:19.747Z,84.95
2022-12-11T07:55:23.767Z,94.66
2022-12-11T07:59:26.454Z,95.56
2022-12-11T08:03:29.183Z,95.70
2022-12-11T08:07:31.811Z,95.77
2022-12-11T08:11:36.233Z,96.00
2022-12-11T08:15:39.122Z,96.25
2022-12-11T08:19:41.988Z,96.11
2022-12-11T08:23:45.584Z,95.91
2022-12-11T08:27:49.609Z,95.50
2022-12-11T08:31:52.371Z,94.55
2022-12-11T08:35:55.055Z,84.95
2022-12-11T08:39:57.740Z,82.72
2022-12-11T08:44:01.878Z,82.73
2022-12-11T08:48:04.865Z,82.96
2022-12-11T08:52:07.912Z,82.41
2022-12-11T08:56:12.632Z,82.07
2022-12-11T09:00:18.520Z,82.96
2022-12-11T09:04:21.497Z,85.06
2022-12-11T09:08:24.176Z,87.08
2022-12-11T09:12:27.533Z,80.51
2022-12-11T09:16:31.791Z,82.14
2022-12-11T09:20:34.443Z,83.17
2022-12-11T09:24:37.212Z,83.58
2022-12-11T09:28:44.444Z,83.44
2022-12-11T09:32:50.205Z,82.95
2022-12-11T09:36:52.976Z,83.48
2022-12-11T09:40:56.195Z,83.70
2022-12-11T09:45:01.173Z,83.81
2022-12-11T09:49:10.452Z,83.01
2022-12-11T09:53:17.096Z,81.45
2022-12-11T09:57:32.801Z,82.24
2022-12-11T10:01:45.148Z,80.60
2022-12-11T10:06:02.684Z,80.29
2022-12-11T10:10:20.285Z,79.33
2022-12-11T10:14:29.950Z,78.80
2022-12-11T10:18:34.139Z,79.92
2022-12-11T10:22:38.405Z,79.21
2022-12-11T10:26:41.109Z,78.60
2022-12-11T10:30:49.590Z,83.44
2022-12-11T10:34:58.964Z,80.76
2022-12-11T10:39:03.562Z,77.79
2022-12-11T10:43:06.216Z,75.74
2022-12-11T10:47:13.753Z,71.86
2022-12-11T10:51:16.979Z,70.40
2022-12-11T10:55:25.585Z,71.63
2022-12-11T10:59:35.265Z,71.88
2022-12-11T11:03:45.002Z,73.32
2022-12-11T11:07:47.750Z,73.40
2022-12-11T11:11:52.069Z,74.32
2022-12-11T11:16:01.444Z,74.08
2022-12-11T11:20:14.199Z,73.81
2022-12-11T11:24:27.140Z,74.83
2022-12-11T11:28:34.844Z,75.75
2022-12-11T11:32:39.972Z,76.86
2022-12-11T11:36:42.585Z,77.53
2022-12-11T11:40:51.062Z,77.86
2022-12-11T11:45:04.100Z,77.38
2022-12-11T11:49:14.065Z,76.49
2022-12-11T11:53:23.500Z,75.38
2022-12-11T11:57:42.466Z,75.99
2022-12-11T12:01:46.560Z,76.91
2022-12-11T12:05:56.518Z,75.72
2022-12-11T12:10:10.949Z,74.67
2022-12-11T12:14:50.705Z,74.71
2022-12-11T12:18:50.084Z,72.47
2022-12-11T12:23:00.370Z,72.04
2022-12-11T12:27:43.324Z,73.34
2022-12-11T12:31:56.158Z,71.42
2022-12-11T12:36:07.442Z,68.63
2022-12-11T12:40:16.813Z,68.43
2022-12-11T12:44:21.265Z,68.71
2022-12-11T12:48:26.120Z,66.28
2022-12-11T12:52:32.945Z,66.81
2022-12-11T12:56:38.037Z,64.74
2022-12-11T13:00:42.618Z,62.83
2022-12-11T13:04:56.909Z,63.12
2022-12-11T13:09:13.495Z,66.11
2022-12-11T13:13:34.639Z,64.41
2022-12-11T13:17:39.005Z,65.71
2022-12-11T13:21:41.718Z,66.85
2022-12-11T13:25:52.983Z,65.51
2022-12-11T13:30:07.668Z,66.99
2022-12-11T13:34:17.842Z,64.62
2022-12-11T13:38:23.416Z,64.52
2022-12-11T13:42:32.642Z,65.55
2022-12-11T13:46:38.312Z,67.36
2022-12-11T13:50:44.805Z,69.97
2022-12-11T13:54:50.939Z,71.72
2022-12-11T13:58:54.985Z,69.90
2022-12-11T14:03:00.620Z,66.91
2022-12-11T14:07:07.768Z,70.67
2022-12-11T14:11:19.829Z,71.58
2022-12-11T14:15:24.279Z,71.97
2022-12-11T14:19:26.979Z,72.55
2022-12-11T14:23:32.401Z,73.08
2022-12-11T14:27:35.067Z,72.64
2022-12-11T14:31:43.536Z,73.97
2022-12-11T14:35:47.439Z,73.99
2022-12-11T14:39:57.969Z,73.24
2022-12-11T14:44:03.829Z,72.71
2022-12-11T14:48:14.837Z,73.27
2022-12-11T14:52:20.953Z,73.40
2022-12-11T14:56:26.991Z,73.10
2022-12-11T15:00:32.285Z,73.99
2022-12-11T15:04:36.355Z,73.74
2022-12-11T15:08:39.086Z,73.55
2022-12-11T15:12:45.872Z,74.51
2022-12-11T15:16:50.433Z,75.04
2022-12-11T15:20:57.467Z,75.37
2022-12-11T15:25:01.059Z,74.88
2022-12-11T15:29:07.193Z,74.12
2022-12-11T15:33:22.105Z,73.87
2022-12-11T15:37:27.965Z,73.73
2022-12-11T15:41:33.294Z,74.69
2022-12-11T15:45:36.906Z,74.73
2022-12-11T15:49:39.552Z,75.05
2022-12-11T15:53:43.660Z,75.57
2022-12-11T15:57:48.871Z,76.65
2022-12-11T16:01:51.741Z,76.80
2022-12-11T16:05:54.675Z,77.44
2022-12-11T16:09:58.723Z,77.15
2022-12-11T16:14:04.229Z,81.33
2022-12-11T16:18:08.956Z,77.86
2022-12-11T16:22:13.017Z,77.74
2022-12-11T16:26:17.069Z,78.61
2022-12-11T16:30:19.811Z,78.74
2022-12-11T16:34:26.461Z,78.79
2022-12-11T16:38:29.158Z,79.10
2022-12-11T16:42:33.257Z,79.22
2022-12-11T16:46:36.082Z,78.17
2022-12-11T16:50:40.916Z,79.29
2022-12-11T16:54:43.564Z,78.91
2022-12-11T16:58:49.284Z,77.07
2022-12-11T17:02:52.059Z,75.89
2022-12-11T17:06:54.801Z,74.33
2022-12-11T17:10:57.482Z,74.83
2022-12-11T17:15:01.540Z,74.48
2022-12-11T17:19:07.178Z,73.80
2022-12-11T17:23:10.645Z,74.00
2022-12-11T17:27:13.654Z,74.21
2022-12-11T17:31:19.268Z,74.59
2022-12-11T17:35:22.163Z,74.89
2022-12-11T17:39:24.941Z,73.61
2022-12-11T17:43:27.684Z,73.45
2022-12-11T17:47:31.793Z,74.24
2022-12-11T17:51:34.428Z,74.92
2022-12-11T17:55:42.787Z,74.49
2022-12-11T17:59:46.070Z,74.32
2022-12-11T18:03:50.105Z,74.71
2022-12-11T18:07:57.467Z,74.84
2022-12-11T18:12:00.724Z,75.14
2022-12-11T18:16:05.723Z,75.61
2022-12-11T18:20:14.493Z,75.37
2022-12-11T18:24:17.375Z,75.59
2022-12-11T18:28:20.438Z,74.82
2022-12-11T18:32:23.100Z,75.43
2022-12-11T18:36:27.207Z,75.89
2022-12-11T18:40:29.962Z,75.86
2022-12-11T18:44:32.661Z,75.57
2022-12-11T18:48:36.139Z,76.70
2022-12-11T18:52:40.174Z,77.00
2022-12-11T18:56:42.818Z,77.20
2022-12-11T19:00:46.096Z,77.35
2022-12-11T19:04:49.113Z,77.66
2022-12-11T19:08:53.596Z,77.97
2022-12-11T19:12:56.289Z,78.03
2022-12-11T19:16:58.980Z,78.84
2022-12-11T19:21:08.491Z,79.07
2022-12-11T19:25:13.885Z,79.08
2022-12-11T19:29:21.268Z,78.69
2022-12-11T19:33:23.980Z,79.26
2022-12-11T19:37:26.661Z,79.96
2022-12-11T19:41:32.097Z,79.30
2022-12-11T19:45:34.800Z,80.07
2022-12-11T19:49:37.550Z,79.58
2022-12-11T19:53:41.332Z,79.91
2022-12-11T19:57:45.444Z,78.99
2022-12-11T20:01:48.932Z,79.41
2022-12-11T20:05:51.744Z,79.79
2022-12-11T20:09:54.428Z,80.69
2022-12-11T20:13:58.524Z,80.74
2022-12-11T20:18:02.535Z,80.96
2022-12-11T20:22:05.610Z,80.50
2022-12-11T20:26:09.321Z,81.04
2022-12-11T20:30:14.623Z,80.67
2022-12-11T20:34:17.478Z,81.28
2022-12-11T20:38:21.067Z,81.54
2022-12-11T20:42:23.793Z,82.13
2022-12-11T20:46:28.873Z,81.98
2022-12-11T20:50:31.529Z,82.35
2022-12-11T20:54:34.481Z,81.92
2022-12-11T20:58:37.645Z,82.33
2022-12-11T21:02:41.669Z,82.52
2022-12-11T21:06:44.494Z,82.10
2022-12-11T21:10:47.499Z,82.43
2022-12-11T21:14:50.199Z,82.57
2022-12-11T21:18:55.323Z,82.82
2022-12-11T21:22:58.095Z,82.96
2022-12-11T21:27:00.815Z,82.51
2022-12-11T21:31:05.731Z,82.69
2022-12-11T21:35:10.834Z,82.73
2022-12-11T21:39:14.593Z,82.14
2022-12-11T21:43:17.267Z,81.51
2022-12-11T21:47:20.080Z,82.05
2022-12-11T21:51:31.080Z,82.20
2022-12-11T21:55:41.339Z,81.80
2022-12-11T21:59:43.967Z,82.55
2022-12-11T22:03:47.056Z,81.74
2022-12-11T22:07:51.103Z,81.51
2022-12-11T22:11:58.367Z,81.56
2022-12-11T22:16:01.554Z,81.36
2022-12-11T22:20:05.174Z,81.17
2022-12-11T22:24:09.415Z,80.96
2022-12-11T22:28:12.113Z,81.36
2022-12-11T22:32:14.748Z,80.81
2022-12-11T22:36:18.934Z,80.90
2022-12-11T22:40:23.099Z,81.29
2022-12-11T22:44:25.776Z,81.42
2022-12-11T22:48:28.399Z,81.59
2022-12-11T22:52:31.111Z,81.77
2022-12-11T22:56:35.093Z,81.66
2022-12-11T23:00:37.768Z,81.90
2022-12-11T23:04:40.395Z,82.09
2022-12-11T23:08:43.896Z,82.46
2022-12-11T23:12:48.036Z,82.42
2022-12-11T23:16:51.019Z,83.47
2022-12-11T23:20:53.687Z,83.88
2022-12-11T23:24:56.312Z,84.50
2022-12-11T23:29:00.943Z,85.22
2022-12-11T23:33:03.584Z,85.87
2022-12-11T23:37:06.242Z,86.44
2022-12-11T23:41:10.287Z,86.47
2022-12-11T23:45:14.712Z,86.72
2022-12-11T23:49:17.594Z,86.97
2022-12-11T23:53:20.261Z,87.13
2022-12-11T23:57:23.176Z,87.27
